Time;durP1;ratioP1;P1;durP2;ratioP2;P2;SDS_P1;SDS_P2;PMS_P1;PMS_P2;Temp;Humidity;BMP_temperature;BMP_pressure;BME280_temperature;BME280_humidity;BME280_pressure;Samples;Min_cycle;Max_cycle;Signal;HPM_P1;HPM_P2
2023/01/09 00:02:11;;;;;;;5.73;5.13;;;9.60;72.60;9.60;94785.00;;;;5037820;28;20625;-84
2023/01/09 00:04:38;;;;;;;5.20;4.73;;;9.70;72.50;9.60;94790.00;;;;5037263;28;20260;-85
2023/01/09 00:07:06;;;;;;;5.63;4.83;;;9.70;72.40;9.50;94797.00;;;;5035966;28;20196;-85
2023/01/09 00:09:33;;;;;;;5.63;4.73;;;9.70;72.20;9.50;94793.00;;;;5037821;28;20251;-84
2023/01/09 00:12:06;;;;;;;8.43;4.90;;;9.60;72.20;9.60;94788.00;;;;5035242;28;20276;-84
2023/01/09 00:14:33;;;;;;;5.17;4.60;;;9.70;72.30;9.60;94795.00;;;;5035868;28;20219;-83
2023/01/09 00:17:00;;;;;;;4.83;4.43;;;9.60;72.30;9.60;94794.00;;;;5038801;28;20284;-85
2023/01/09 00:19:27;;;;;;;8.10;4.40;;;9.60;72.40;9.60;94806.00;;;;5035844;28;20332;-84
2023/01/09 00:21:54;;;;;;;5.23;4.37;;;9.60;72.50;9.60;94805.00;;;;5037681;28;20288;-86
2023/01/09 00:24:21;;;;;;;5.50;5.00;;;9.70;72.60;9.60;94812.00;;;;5034046;28;20307;-85
2023/01/09 00:26:48;;;;;;;20.87;5.77;;;9.70;72.60;9.60;94822.00;;;;5037212;28;20208;-86
2023/01/09 00:29:16;;;;;;;5.33;4.87;;;9.70;72.60;9.60;94821.00;;;;5036332;28;20739;-85
2023/01/09 00:31:44;;;;;;;7.70;4.70;;;9.70;72.70;9.60;94812.00;;;;5036319;28;20197;-84
2023/01/09 00:34:11;;;;;;;17.60;5.20;;;9.70;72.60;9.60;94821.00;;;;5036898;28;20624;-85
2023/01/09 00:36:38;;;;;;;8.37;4.53;;;9.70;72.70;9.70;94829.00;;;;5034629;28;20280;-85
2023/01/09 00:39:06;;;;;;;50.47;7.47;;;9.70;72.70;9.70;94820.00;;;;5035480;28;20236;-84
2023/01/09 00:41:39;;;;;;;5.13;4.60;;;9.70;72.70;9.70;94829.00;;;;5036376;28;20196;-85
2023/01/09 00:44:13;;;;;;;5.20;4.70;;;9.70;72.70;9.70;94829.00;;;;5035391;28;20758;-85
2023/01/09 00:46:47;;;;;;;25.53;5.87;;;9.70;72.60;9.70;94838.00;;;;5033709;28;20197;-84
2023/01/09 00:49:16;;;;;;;6.20;5.10;;;9.70;72.70;9.70;94827.00;;;;5037244;28;20562;-85
2023/01/09 00:51:44;;;;;;;30.27;6.83;;;9.70;72.80;9.70;94835.00;;;;5035934;28;20296;-84
2023/01/09 00:54:14;;;;;;;6.97;5.53;;;9.70;72.90;9.70;94829.00;;;;5036194;28;20229;-85
2023/01/09 00:56:42;;;;;;;16.67;5.93;;;9.80;73.00;9.70;94831.00;;;;5035809;28;20285;-84
2023/01/09 00:59:09;;;;;;;39.93;6.57;;;9.80;73.00;9.80;94826.00;;;;5034832;28;20243;-85
2023/01/09 01:01:36;;;;;;;5.63;5.03;;;9.80;73.20;9.80;94834.00;;;;5036067;28;20290;-85
2023/01/09 01:09:31;;;;;;;16.37;6.37;;;9.80;72.90;9.80;94833.00;;;;5036214;28;20212;-85
2023/01/09 01:11:58;;;;;;;72.67;8.90;;;9.80;73.00;9.80;94841.00;;;;5034887;28;20239;-85
2023/01/09 01:14:26;;;;;;;9.57;5.17;;;9.80;73.10;9.80;94829.00;;;;5036214;28;20228;-85
2023/01/09 01:16:54;;;;;;;13.90;6.30;;;9.80;73.30;9.80;94841.00;;;;5036192;28;20284;-84
2023/01/09 01:19:22;;;;;;;6.47;5.43;;;9.90;73.30;9.80;94831.00;;;;5035904;28;20706;-84
2023/01/09 01:21:49;;;;;;;5.70;5.20;;;9.80;73.50;9.80;94828.00;;;;5036260;28;20197;-85
2023/01/09 01:24:18;;;;;;;5.70;5.20;;;9.80;73.50;9.80;94825.00;;;;5033876;28;20315;-86
2023/01/09 01:26:45;;;;;;;7.50;5.63;;;9.80;73.40;9.80;94816.00;;;;5036387;28;20197;-85
2023/01/09 01:29:12;;;;;;;21.37;6.07;;;9.80;73.30;9.80;94822.00;;;;5033541;28;20280;-85
2023/01/09 01:31:40;;;;;;;8.73;5.23;;;9.80;74.00;9.80;94822.00;;;;5033715;28;20193;-85
2023/01/09 01:34:07;;;;;;;25.27;6.57;;;9.80;73.50;9.80;94817.00;;;;5032398;28;20239;-85
2023/01/09 01:36:35;;;;;;;6.40;5.53;;;9.80;73.50;9.70;94807.00;;;;5031007;28;20193;-84
2023/01/09 01:39:03;;;;;;;17.00;6.13;;;9.80;73.50;9.80;94811.00;;;;5033509;28;20193;-85
2023/01/09 01:41:30;;;;;;;7.43;4.87;;;9.80;73.60;9.70;94800.00;;;;5035150;28;20231;-85
2023/01/09 01:44:00;;;;;;;5.73;5.13;;;9.80;73.70;9.80;94807.00;;;;5034179;28;20225;-84
2023/01/09 01:46:28;;;;;;;19.27;6.33;;;9.80;73.70;9.80;94806.00;;;;5035847;28;20221;-85
2023/01/09 01:49:03;;;;;;;13.70;5.47;;;9.80;73.90;9.80;94802.00;;;;5035833;28;20194;-84
2023/01/09 01:51:39;;;;;;;31.00;6.87;;;9.90;74.10;9.80;94801.00;;;;5032244;28;20205;-84
2023/01/09 01:54:13;;;;;;;12.23;5.27;;;9.80;74.10;9.80;94806.00;;;;5035984;28;20568;-85
2023/01/09 01:56:46;;;;;;;36.87;7.27;;;9.80;74.10;9.80;94798.00;;;;5039691;28;20248;-85
2023/01/09 01:59:20;;;;;;;15.27;5.70;;;9.90;75.00;9.80;94789.00;;;;5038883;28;20691;-85
2023/01/09 02:01:52;;;;;;;5.50;5.00;;;9.90;74.30;9.80;94772.00;;;;5038991;28;20311;-85
2023/01/09 02:04:20;;;;;;;15.03;5.87;;;9.80;74.10;9.70;94775.00;;;;5039314;28;20272;-85
2023/01/09 02:06:53;;;;;;;5.83;5.10;;;9.90;74.00;9.70;94773.00;;;;5037830;28;20283;-85
2023/01/09 02:09:21;;;;;;;5.40;4.90;;;9.80;73.90;9.70;94784.00;;;;5037252;28;20228;-84
2023/01/09 02:11:52;;;;;;;5.53;5.00;;;9.80;73.80;9.70;94794.00;;;;5038405;28;20227;-85
2023/01/09 02:14:21;;;;;;;10.20;6.13;;;9.80;73.60;9.70;94805.00;;;;5039116;28;20244;-86
2023/01/09 02:17:02;;;;;;;21.60;5.83;;;9.80;73.70;9.60;94804.00;;;;5038077;28;20236;-84
2023/01/09 02:20:12;;;;;;;6.33;5.33;;;9.70;73.90;9.60;94810.00;;;;5037120;28;20212;-84
2023/01/09 02:23:08;;;;;;;15.40;6.07;;;9.80;74.10;9.60;94790.00;;;;5039610;28;20240;-85
2023/01/09 02:26:23;;;;;;;5.13;4.63;;;9.80;74.10;9.60;94790.00;;;;5037418;28;20232;-85
2023/01/09 02:29:44;;;;;;;6.70;5.17;;;9.70;74.10;9.60;94794.00;;;;5038853;28;20197;-85
2023/01/09 02:32:32;;;;;;;10.17;5.23;;;9.80;74.10;9.60;94795.00;;;;5038385;28;20548;-84
2023/01/09 02:35:17;;;;;;;13.07;5.80;;;9.70;74.00;9.60;94799.00;;;;5037964;28;20615;-85
2023/01/09 02:37:56;;;;;;;18.37;5.50;;;9.70;74.00;9.60;94808.00;;;;5038100;28;20214;-85
2023/01/09 02:40:29;;;;;;;5.63;5.13;;;9.70;74.20;9.60;94808.00;;;;5037704;28;20224;-85
2023/01/09 02:43:00;;;;;;;6.07;5.20;;;9.70;74.20;9.60;94802.00;;;;5037967;28;20201;-85
2023/01/09 02:45:27;;;;;;;5.57;4.70;;;9.70;74.10;9.60;94801.00;;;;5038523;28;20228;-85
2023/01/09 02:47:55;;;;;;;41.83;7.70;;;9.70;74.00;9.60;94790.00;;;;5037860;28;20317;-85
2023/01/09 02:50:31;;;;;;;23.07;6.07;;;9.70;74.10;9.60;94787.00;;;;5038123;28;20200;-85
2023/01/09 02:53:28;;;;;;;5.23;4.83;;;9.70;74.00;9.60;94781.00;;;;5036680;28;20768;-85
2023/01/09 02:56:17;;;;;;;25.47;5.97;;;9.70;74.10;9.60;94792.00;;;;5038893;28;20254;-84
2023/01/09 02:59:16;;;;;;;33.60;6.17;;;9.70;74.00;9.60;94792.00;;;;5039126;28;20221;-85
2023/01/09 03:02:09;;;;;;;5.50;4.87;;;9.70;74.00;9.60;94788.00;;;;5045296;28;20288;-85
2023/01/09 03:04:52;;;;;;;8.23;6.03;;;9.70;73.90;9.60;94787.00;;;;5038093;28;20311;-85
2023/01/09 03:07:27;;;;;;;21.80;5.97;;;9.70;74.60;9.60;94780.00;;;;5037900;28;20287;-84
2023/01/09 03:10:05;;;;;;;10.63;5.47;;;9.70;73.90;9.60;94780.00;;;;5037806;28;20223;-84
2023/01/09 03:12:33;;;;;;;6.57;5.17;;;9.70;74.00;9.60;94776.00;;;;5039105;28;20188;-85
2023/01/09 03:15:07;;;;;;;7.47;5.43;;;9.70;73.90;9.60;94777.00;;;;5043709;28;20228;-85
2023/01/09 03:17:40;;;;;;;15.57;5.77;;;9.70;73.80;9.60;94779.00;;;;5044732;28;20209;-85
2023/01/09 03:20:17;;;;;;;6.30;5.20;;;9.70;74.40;9.60;94787.00;;;;5041967;28;20288;-85
2023/01/09 03:22:53;;;;;;;6.50;5.20;;;9.70;73.60;9.60;94788.00;;;;5037201;28;20284;-85
2023/01/09 03:25:21;;;;;;;5.47;4.97;;;9.70;73.60;9.50;94792.00;;;;5037617;28;20652;-84
2023/01/09 03:27:52;;;;;;;5.83;5.20;;;9.70;73.60;9.50;94788.00;;;;5039195;28;20196;-84
2023/01/09 03:30:19;;;;;;;10.20;5.07;;;9.60;73.50;9.50;94782.00;;;;5037683;28;20730;-84
2023/01/09 03:32:46;;;;;;;28.40;6.97;;;9.60;73.50;9.50;94790.00;;;;5036027;28;20220;-84
2023/01/09 03:35:15;;;;;;;5.97;5.40;;;9.60;73.60;9.50;94779.00;;;;5035965;28;20312;-85
2023/01/09 03:37:42;;;;;;;18.47;5.83;;;9.60;73.70;9.40;94776.00;;;;5035592;28;20228;-85
2023/01/09 03:40:11;;;;;;;16.23;5.40;;;9.50;73.70;9.40;94788.00;;;;5038308;28;20200;-85
2023/01/09 03:42:38;;;;;;;17.30;5.83;;;9.60;73.80;9.50;94789.00;;;;5036365;28;20231;-84
2023/01/09 03:45:07;;;;;;;6.47;5.40;;;9.60;74.00;9.50;94780.00;;;;5036525;28;20229;-85
2023/01/09 03:47:34;;;;;;;17.33;5.97;;;9.60;74.10;9.50;94786.00;;;;5037440;28;20647;-84
2023/01/09 03:50:01;;;;;;;19.97;6.17;;;9.60;74.10;9.50;94787.00;;;;5036541;28;20252;-85
2023/01/09 03:52:30;;;;;;;73.87;8.73;;;9.50;74.20;9.50;94791.00;;;;5037040;28;20221;-85
2023/01/09 03:54:57;;;;;;;5.87;5.17;;;9.60;74.30;9.50;94790.00;;;;5034691;28;20308;-85
2023/01/09 03:57:24;;;;;;;14.03;5.37;;;9.60;74.30;9.50;94775.00;;;;5038020;28;20203;-85
2023/01/09 03:59:51;;;;;;;8.00;5.30;;;9.60;74.20;9.50;94782.00;;;;5038193;28;20233;-85
2023/01/09 04:02:18;;;;;;;43.60;8.17;;;9.60;74.20;9.50;94773.00;;;;5037665;28;21059;-85
2023/01/09 04:04:45;;;;;;;38.83;7.23;;;9.60;74.10;9.50;94786.00;;;;5038404;28;20319;-85
2023/01/09 04:07:13;;;;;;;16.27;5.43;;;9.60;74.20;9.50;94783.00;;;;5036588;28;20251;-85
2023/01/09 04:09:41;;;;;;;11.97;5.27;;;9.60;74.10;9.50;94784.00;;;;5036922;28;20714;-84
2023/01/09 04:12:08;;;;;;;7.80;4.53;;;9.60;74.00;9.50;94791.00;;;;5036526;28;20650;-85
2023/01/09 04:14:35;;;;;;;22.53;5.60;;;9.60;74.00;9.50;94787.00;;;;5037361;28;20228;-85
2023/01/09 04:17:03;;;;;;;33.43;6.27;;;9.60;74.00;9.50;94786.00;;;;5036130;28;20205;-84
2023/01/09 04:19:30;;;;;;;7.57;5.10;;;9.60;74.00;9.50;94784.00;;;;5036892;28;20324;-85
2023/01/09 04:21:57;;;;;;;11.27;5.07;;;9.60;74.70;9.50;94790.00;;;;5036605;28;20259;-84
2023/01/09 04:24:24;;;;;;;22.80;5.67;;;9.60;73.80;9.50;94796.00;;;;5037102;28;20270;-85
2023/01/09 04:26:52;;;;;;;11.73;5.07;;;9.50;73.80;9.50;94804.00;;;;5035394;28;20208;-84
2023/01/09 04:29:19;;;;;;;47.27;7.40;;;9.60;73.90;9.50;94802.00;;;;5036311;28;20265;-86
2023/01/09 04:31:46;;;;;;;40.30;6.73;;;9.60;73.80;9.40;94806.00;;;;5038579;28;20619;-85
2023/01/09 04:34:14;;;;;;;13.13;5.93;;;9.60;73.90;9.40;94809.00;;;;5037604;28;20224;-84
2023/01/09 04:36:41;;;;;;;7.13;5.07;;;9.50;73.90;9.40;94818.00;;;;5037230;28;20657;-84
2023/01/09 04:39:09;;;;;;;6.07;5.23;;;9.50;73.90;9.40;94814.00;;;;5037206;28;20717;-84
2023/01/09 04:41:51;;;;;;;5.43;4.93;;;9.50;74.00;9.40;94824.00;;;;5037055;28;20193;-84
2023/01/09 04:44:25;;;;;;;6.43;5.70;;;9.50;74.00;9.50;94828.00;;;;5035459;28;20197;-86
2023/01/09 04:46:53;;;;;;;6.83;4.53;;;9.50;74.10;9.50;94829.00;;;;5037571;28;20604;-83
2023/01/09 04:49:20;;;;;;;12.33;4.97;;;9.50;74.10;9.50;94836.00;;;;5036526;28;20209;-85
2023/01/09 04:51:48;;;;;;;5.07;4.57;;;9.50;74.10;9.50;94834.00;;;;5036471;28;20247;-85
2023/01/09 04:54:15;;;;;;;13.47;5.07;;;9.50;74.20;9.50;94839.00;;;;5036605;28;20197;-85
2023/01/09 04:56:42;;;;;;;42.50;6.57;;;9.50;74.30;9.50;94848.00;;;;5036707;28;20201;-84
2023/01/09 04:59:09;;;;;;;10.10;5.20;;;9.60;74.40;9.50;94844.00;;;;5036365;28;20293;-86
2023/01/09 05:01:38;;;;;;;4.67;4.10;;;9.60;74.40;9.50;94850.00;;;;5034634;28;20256;-85
2023/01/09 05:04:06;;;;;;;13.77;5.17;;;9.60;74.40;9.50;94862.00;;;;5036525;28;21186;-84
2023/01/09 05:06:34;;;;;;;11.73;4.20;;;9.60;74.50;9.60;94865.00;;;;5036390;28;20220;-84
2023/01/09 05:09:01;;;;;;;6.20;4.90;;;9.60;74.50;9.60;94869.00;;;;5037117;28;20211;-85
2023/01/09 05:11:28;;;;;;;33.40;6.20;;;9.60;74.60;9.60;94866.00;;;;5037641;28;20288;-86
2023/01/09 05:13:56;;;;;;;16.03;5.97;;;9.60;74.60;9.60;94867.00;;;;5036299;28;20231;-84
2023/01/09 05:16:23;;;;;;;8.20;4.93;;;9.60;74.60;9.70;94878.00;;;;5035352;28;20327;-84
2023/01/09 05:18:55;;;;;;;28.33;6.07;;;9.70;74.70;9.70;94878.00;;;;5034376;28;20576;-85
2023/01/09 05:21:23;;;;;;;5.03;4.53;;;9.70;74.80;9.70;94883.00;;;;5035969;28;20246;-85
2023/01/09 05:23:50;;;;;;;43.87;6.60;;;9.70;74.90;9.70;94883.00;;;;5033480;28;20196;-85
2023/01/09 05:26:17;;;;;;;8.83;4.90;;;9.70;74.90;9.70;94891.00;;;;5036423;28;20328;-84
2023/01/09 05:28:44;;;;;;;4.57;4.17;;;9.70;75.00;9.80;94901.00;;;;5033834;28;20295;-85
2023/01/09 05:31:11;;;;;;;4.83;4.30;;;9.70;74.90;9.80;94904.00;;;;5037252;28;20313;-84
2023/01/09 05:33:38;;;;;;;4.00;3.60;;;9.80;75.70;9.80;94913.00;;;;5038243;28;20228;-84
2023/01/09 05:36:08;;;;;;;10.33;4.03;;;9.80;75.00;9.80;94922.00;;;;5039299;28;20223;-84
2023/01/09 05:38:35;;;;;;;3.90;3.60;;;9.80;75.10;9.80;94926.00;;;;5040203;28;20542;-85
2023/01/09 05:41:02;;;;;;;4.20;3.60;;;9.80;75.10;9.80;94922.00;;;;5040628;28;20224;-85
2023/01/09 05:43:29;;;;;;;6.87;3.10;;;9.90;75.10;9.80;94924.00;;;;5039536;28;20275;-84
2023/01/09 05:45:56;;;;;;;3.07;2.87;;;9.90;75.20;9.90;94933.00;;;;5039385;28;20225;-82
2023/01/09 05:48:23;;;;;;;3.07;2.33;;;9.80;75.30;9.90;94930.00;;;;5040694;28;20225;-85
2023/01/09 05:50:51;;;;;;;2.73;2.53;;;9.90;75.40;9.90;94940.00;;;;5038769;28;20289;-84
2023/01/09 05:53:19;;;;;;;2.23;1.80;;;9.90;75.70;9.90;94931.00;;;;5037375;28;20200;-84
2023/01/09 05:55:46;;;;;;;1.60;1.50;;;9.90;76.60;10.00;94937.00;;;;5038822;28;20231;-85
2023/01/09 05:58:13;;;;;;;1.37;1.27;;;10.00;76.20;10.00;94948.00;;;;5039151;28;20292;-84
2023/01/09 06:00:40;;;;;;;0.70;0.70;;;10.00;76.50;10.10;94950.00;;;;5039149;28;20577;-84
2023/01/09 06:03:07;;;;;;;0.97;0.60;;;10.10;76.90;10.20;94954.00;;;;5037366;28;20677;-84
2023/01/09 06:05:35;;;;;;;0.43;0.43;;;10.20;77.30;10.30;94950.00;;;;5037670;28;20243;-85
2023/01/09 06:08:02;;;;;;;1.53;0.60;;;10.20;77.60;10.40;94958.00;;;;5039912;28;20684;-84
2023/01/09 06:10:30;;;;;;;1.73;0.40;;;10.30;77.70;10.50;94971.00;;;;5038397;28;20287;-85
2023/01/09 06:12:57;;;;;;;0.97;0.27;;;10.40;78.10;10.50;94981.00;;;;5039942;28;20232;-85
2023/01/09 06:15:24;;;;;;;2.57;0.63;;;10.50;78.20;10.60;94970.00;;;;5037433;28;20308;-85
2023/01/09 06:17:51;;;;;;;6.27;0.90;;;10.60;78.20;10.70;94981.00;;;;5039861;28;20766;-85
2023/01/09 06:20:19;;;;;;;2.10;0.40;;;10.70;78.10;10.80;94983.00;;;;5037447;28;20201;-85
2023/01/09 06:22:46;;;;;;;2.10;0.47;;;10.70;78.00;10.80;94988.00;;;;5039310;28;20208;-85
2023/01/09 06:25:15;;;;;;;0.70;0.30;;;10.90;77.90;10.90;94975.00;;;;5038472;28;20225;-84
2023/01/09 06:27:43;;;;;;;0.30;0.30;;;10.90;77.90;11.00;94983.00;;;;5038905;28;20258;-85
2023/01/09 06:30:12;;;;;;;3.10;0.80;;;11.00;77.70;11.10;94986.00;;;;5038750;28;20312;-85
2023/01/09 06:32:39;;;;;;;0.50;0.30;;;11.00;77.60;11.10;95002.00;;;;5038374;28;20558;-84
2023/01/09 06:35:06;;;;;;;0.37;0.37;;;11.10;77.60;11.20;95004.00;;;;5036873;28;20223;-84
2023/01/09 06:37:34;;;;;;;0.73;0.30;;;11.20;77.40;11.20;95009.00;;;;5039407;28;20196;-85
2023/01/09 06:40:01;;;;;;;0.30;0.30;;;11.20;77.30;11.30;95015.00;;;;5039473;28;20193;-84
2023/01/09 06:42:28;;;;;;;2.63;0.40;;;11.30;77.30;11.30;95032.00;;;;5037903;28;20197;-85
2023/01/09 06:44:56;;;;;;;0.40;0.30;;;11.30;77.10;11.30;95033.00;;;;5039030;28;20312;-85
2023/01/09 06:47:23;;;;;;;0.50;0.33;;;11.30;77.00;11.40;95036.00;;;;5038118;28;20314;-84
2023/01/09 06:49:51;;;;;;;1.13;0.30;;;11.40;77.00;11.40;95044.00;;;;5037730;28;20715;-84
2023/01/09 06:52:18;;;;;;;0.27;0.27;;;11.40;76.90;11.50;95048.00;;;;5037304;28;21029;-84
2023/01/09 06:54:45;;;;;;;0.30;0.30;;;11.50;76.80;11.50;95056.00;;;;5038140;28;20228;-85
2023/01/09 06:57:13;;;;;;;0.30;0.30;;;11.50;76.70;11.60;95048.00;;;;5036110;28;20232;-85
2023/01/09 06:59:40;;;;;;;0.30;0.30;;;11.50;76.50;11.60;95059.00;;;;5038425;28;20258;-84
2023/01/09 07:02:17;;;;;;;0.73;0.50;;;11.60;76.40;11.60;95056.00;;;;5037123;28;20674;-85
2023/01/09 07:04:45;;;;;;;2.20;0.30;;;11.60;76.00;11.60;95054.00;;;;5039147;28;20217;-85
2023/01/09 07:07:12;;;;;;;0.10;0.10;;;11.60;75.80;11.60;95064.00;;;;5034393;28;20228;-84
2023/01/09 07:09:39;;;;;;;1.67;0.20;;;11.70;75.50;11.60;95082.00;;;;5033572;28;20308;-85
2023/01/09 07:12:07;;;;;;;2.63;0.50;;;11.70;75.00;11.50;95083.00;;;;5036681;28;20247;-85
2023/01/09 07:14:34;;;;;;;0.07;0.07;;;11.70;74.90;11.50;95103.00;;;;5033607;28;20564;-85
2023/01/09 07:17:01;;;;;;;0.10;0.10;;;11.70;74.60;11.50;95104.00;;;;5033311;28;20207;-85
2023/01/09 07:19:29;;;;;;;0.40;0.10;;;11.60;74.40;11.50;95121.00;;;;5039243;28;20292;-84
2023/01/09 07:21:56;;;;;;;0.20;0.20;;;11.60;74.30;11.40;95118.00;;;;5048200;28;20231;-83
2023/01/09 07:24:23;;;;;;;6.80;0.50;;;11.60;74.40;11.40;95128.00;;;;5048857;28;20264;-85
2023/01/09 07:26:51;;;;;;;5.10;0.43;;;11.60;74.30;11.40;95140.00;;;;5044463;28;20873;-84
2023/01/09 07:29:18;;;;;;;0.37;0.30;;;11.60;74.50;11.30;95139.00;;;;5044297;28;20236;-85
2023/01/09 07:31:45;;;;;;;1.80;0.07;;;11.50;74.60;11.30;95144.00;;;;5046265;28;20255;-85
2023/01/09 07:34:12;;;;;;;0.67;0.23;;;11.50;74.70;11.30;95136.00;;;;5036911;28;20207;-86
2023/01/09 07:36:43;;;;;;;0.57;0.27;;;11.50;74.80;11.20;95138.00;;;;5038517;28;20214;-85
2023/01/09 07:39:10;;;;;;;0.10;0.10;;;11.40;75.00;11.10;95139.00;;;;5034498;28;20205;-84
2023/01/09 07:41:37;;;;;;;0.20;0.20;;;11.40;75.20;11.10;95151.00;;;;5036620;28;20288;-85
2023/01/09 07:44:05;;;;;;;5.70;0.60;;;11.40;75.50;11.10;95153.00;;;;5036443;28;20222;-85
2023/01/09 07:46:33;;;;;;;0.70;0.30;;;11.30;75.70;11.10;95161.00;;;;5022383;28;20318;-88
2023/01/09 07:49:00;;;;;;;0.10;0.10;;;11.30;75.80;11.20;95172.00;;;;5029801;28;20224;-88
2023/01/09 07:51:27;;;;;;;5.77;0.60;;;11.30;75.80;11.20;95177.00;;;;5036043;28;20198;-85
2023/01/09 07:53:56;;;;;;;2.57;0.23;;;11.30;76.00;11.20;95182.00;;;;5035437;28;20201;-85
2023/01/09 07:56:23;;;;;;;1.03;0.20;;;11.30;75.80;11.20;95184.00;;;;5036805;28;21135;-85
2023/01/09 07:58:50;;;;;;;0.83;0.20;;;11.30;75.80;11.30;95193.00;;;;5034477;28;20287;-85
2023/01/09 08:01:17;;;;;;;1.93;0.30;;;11.30;75.80;11.30;95186.00;;;;5037093;28;20283;-85
2023/01/09 08:03:44;;;;;;;4.43;0.37;;;11.30;75.80;11.30;95190.00;;;;5036071;28;20613;-84
2023/01/09 08:06:11;;;;;;;0.33;0.13;;;11.30;75.90;11.30;95187.00;;;;5034263;28;20248;-87
2023/01/09 08:08:38;;;;;;;0.10;0.10;;;11.30;75.80;11.30;95187.00;;;;5035297;28;20189;-85
2023/01/09 08:11:07;;;;;;;0.30;0.20;;;11.30;75.60;11.30;95187.00;;;;5031952;28;20292;-85
2023/01/09 08:13:34;;;;;;;2.53;0.20;;;11.30;75.60;11.30;95186.00;;;;5035397;28;20285;-87
2023/01/09 08:16:01;;;;;;;0.20;0.20;;;11.30;75.60;11.30;95186.00;;;;5033609;28;20640;-86
2023/01/09 08:18:28;;;;;;;0.10;0.10;;;11.30;75.40;11.30;95204.00;;;;5036057;28;20236;-85
2023/01/09 08:20:55;;;;;;;0.73;0.40;;;11.30;76.00;11.30;95209.00;;;;5035719;28;20235;-85
2023/01/09 08:23:22;;;;;;;0.20;0.20;;;11.30;75.10;11.30;95211.00;;;;5037572;28;20622;-85
2023/01/09 08:25:49;;;;;;;0.77;0.20;;;11.30;75.20;11.30;95210.00;;;;5036861;28;20660;-86
2023/01/09 08:28:18;;;;;;;0.10;0.10;;;11.30;75.00;11.30;95210.00;;;;5036902;28;20208;-87
2023/01/09 08:30:46;;;;;;;0.10;0.10;;;11.40;75.70;11.30;95221.00;;;;5033731;28;20236;-86
2023/01/09 08:33:14;;;;;;;1.73;0.17;;;11.40;74.80;11.40;95225.00;;;;5035202;28;20233;-88
2023/01/09 08:35:42;;;;;;;0.83;0.10;;;11.40;74.70;11.40;95229.00;;;;5034587;28;20227;-85
2023/01/09 08:38:09;;;;;;;10.00;0.33;;;11.40;74.80;11.40;95231.00;;;;5036102;28;20708;-86
2023/01/09 08:40:37;;;;;;;0.20;0.20;;;11.40;74.80;11.50;95226.00;;;;5036338;28;20207;-86
2023/01/09 08:48:34;;;;;;;0.20;0.20;;;11.50;74.40;11.60;95242.00;;;;5036508;28;20204;-86
2023/01/09 08:51:01;;;;;;;3.17;0.53;;;11.60;74.50;11.70;95254.00;;;;5034636;28;20291;-86
2023/01/09 08:53:30;;;;;;;0.20;0.20;;;11.60;74.40;11.70;95261.00;;;;5035947;28;20202;-86
2023/01/09 08:55:58;;;;;;;0.77;0.20;;;11.60;74.10;11.80;95264.00;;;;5036896;28;20261;-88
2023/01/09 08:58:25;;;;;;;2.00;0.43;;;11.70;73.90;11.80;95268.00;;;;5035594;28;20201;-86
2023/01/09 09:00:53;;;;;;;0.83;0.10;;;11.70;73.70;11.80;95275.00;;;;5033402;28;20292;-86
2023/01/09 09:03:20;;;;;;;0.10;0.10;;;11.80;73.50;11.80;95284.00;;;;5035545;28;20632;-88
2023/01/09 09:05:47;;;;;;;0.83;0.10;;;11.80;73.10;11.80;95276.00;;;;5036248;28;20295;-85
2023/01/09 09:08:15;;;;;;;0.30;0.20;;;11.80;72.70;11.80;95272.00;;;;5040001;28;20366;-87
2023/01/09 09:10:42;;;;;;;3.27;0.23;;;11.80;72.30;11.80;95274.00;;;;5039621;28;20821;-86
2023/01/09 09:13:10;;;;;;;0.83;0.20;;;11.80;72.40;11.80;95261.00;;;;5038113;28;20775;-85
2023/01/09 09:15:37;;;;;;;0.53;0.30;;;11.80;71.70;11.70;95265.00;;;;5038743;28;20264;-86
2023/01/09 09:18:08;;;;;;;0.93;0.10;;;11.80;71.70;11.70;95265.00;;;;5039940;28;20236;-85
2023/01/09 09:20:38;;;;;;;2.27;0.37;;;11.80;71.60;11.70;95265.00;;;;5039783;28;20296;-85
2023/01/09 09:23:07;;;;;;;0.63;0.23;;;11.70;71.40;11.70;95267.00;;;;5039566;28;20205;-87
2023/01/09 09:25:37;;;;;;;0.27;0.20;;;11.70;71.40;11.70;95259.00;;;;5038898;28;20271;-85
2023/01/09 09:28:04;;;;;;;0.10;0.10;;;11.70;71.40;11.70;95264.00;;;;5040138;28;20265;-84
2023/01/09 09:30:31;;;;;;;1.97;0.23;;;11.70;71.40;11.70;95256.00;;;;5039700;28;20206;-87
2023/01/09 09:32:58;;;;;;;2.10;0.30;;;11.70;71.40;11.60;95252.00;;;;5039710;28;20297;-86
2023/01/09 09:35:27;;;;;;;0.73;0.20;;;11.70;71.40;11.60;95252.00;;;;5040521;28;20239;-86
2023/01/09 09:37:56;;;;;;;0.30;0.30;;;11.70;71.40;11.70;95273.00;;;;5040651;28;20205;-85
2023/01/09 09:40:42;;;;;;;0.20;0.20;;;11.70;71.60;11.70;95271.00;;;;5039733;28;20542;-86
2023/01/09 09:46:42;;;;;;;0.77;0.20;;;11.70;71.50;11.70;95275.00;;;;5038786;28;20607;-87
2023/01/09 09:49:19;;;;;;;0.40;0.23;;;11.70;71.50;11.70;95282.00;;;;5039008;28;20284;-86
2023/01/09 09:52:09;;;;;;;0.20;0.20;;;11.70;71.20;11.60;95285.00;;;;5040368;28;20205;-86
2023/01/09 09:54:42;;;;;;;0.30;0.20;;;11.70;70.70;11.60;95281.00;;;;5038020;28;20217;-86
2023/01/09 09:57:17;;;;;;;4.63;0.43;;;11.70;70.80;11.60;95290.00;;;;5038683;28;20274;-86
2023/01/09 09:59:47;;;;;;;0.20;0.20;;;11.70;70.80;11.70;95297.00;;;;5040502;28;20257;-86
2023/01/09 10:02:27;;;;;;;0.10;0.10;;;11.70;70.90;11.70;95290.00;;;;5039239;28;20303;-85
2023/01/09 10:05:07;;;;;;;1.37;0.20;;;11.70;70.20;11.70;95286.00;;;;5039251;28;20319;-87
2023/01/09 10:07:45;;;;;;;1.27;0.30;;;11.70;70.00;11.70;95290.00;;;;5037560;28;20841;-86
2023/01/09 10:10:25;;;;;;;1.27;0.40;;;11.70;70.00;11.70;95285.00;;;;5039897;28;20248;-86
2023/01/09 10:12:57;;;;;;;0.73;0.30;;;11.70;69.90;11.80;95289.00;;;;5038845;28;20205;-85
2023/01/09 10:15:36;;;;;;;1.13;0.20;;;11.80;69.60;11.80;95289.00;;;;5038314;28;20786;-86
2023/01/09 10:18:29;;;;;;;1.77;0.23;;;11.80;68.80;11.80;95272.00;;;;5038590;28;20234;-86
2023/01/09 10:20:59;;;;;;;5.63;0.50;;;11.80;68.60;11.80;95279.00;;;;5039290;28;20626;-86
2023/01/09 10:24:11;;;;;;;0.30;0.30;;;11.80;69.10;11.80;95271.00;;;;5039176;28;20207;-86
2023/01/09 10:26:47;;;;;;;0.57;0.30;;;11.80;68.70;11.80;95265.00;;;;4967144;28;20206;-87
2023/01/09 10:29:50;;;;;;;4.90;0.77;;;11.80;68.50;11.80;95282.00;;;;5027935;28;20204;-87
2023/01/09 10:32:52;;;;;;;2.20;0.33;;;11.80;68.20;11.70;95268.00;;;;5038271;28;20209;-88
2023/01/09 10:35:36;;;;;;;0.80;0.33;;;11.70;67.60;11.70;95272.00;;;;5036705;28;20220;-86
2023/01/09 10:38:07;;;;;;;0.27;0.20;;;11.80;67.90;11.70;95268.00;;;;5038486;28;20213;-86
2023/01/09 10:40:45;;;;;;;1.97;0.50;;;11.80;68.00;11.70;95273.00;;;;5037770;28;20208;-86
2023/01/09 10:43:25;;;;;;;9.53;0.90;;;11.80;67.60;11.70;95264.00;;;;5037214;28;20200;-87
2023/01/09 10:45:57;;;;;;;1.70;0.67;;;11.80;67.80;11.70;95255.00;;;;5039112;28;20233;-87
2023/01/09 10:48:32;;;;;;;1.33;0.30;;;11.80;67.90;11.80;95256.00;;;;5042628;28;20224;-88
2023/01/09 10:50:59;;;;;;;1.37;0.33;;;11.80;67.50;11.70;95254.00;;;;5039573;28;20201;-86
2023/01/09 10:53:35;;;;;;;1.57;0.30;;;11.80;67.30;11.70;95255.00;;;;5038930;28;20252;-87
2023/01/09 10:56:13;;;;;;;0.40;0.20;;;11.80;66.80;11.70;95267.00;;;;5038484;28;20283;-87
2023/01/09 10:58:40;;;;;;;0.63;0.43;;;11.80;66.80;11.70;95255.00;;;;5039367;28;20215;-87
2023/01/09 11:01:09;;;;;;;0.40;0.30;;;11.80;67.10;11.70;95265.00;;;;5039445;28;20223;-86
2023/01/09 11:03:37;;;;;;;1.17;0.33;;;11.80;67.20;11.70;95270.00;;;;5036453;28;20204;-87
2023/01/09 11:06:22;;;;;;;0.30;0.23;;;11.80;67.30;11.70;95272.00;;;;5037365;28;20475;-86
2023/01/09 11:08:53;;;;;;;1.50;0.67;;;11.80;67.20;11.80;95273.00;;;;5036896;28;20208;-87
2023/01/09 11:11:35;;;;;;;1.27;0.30;;;11.80;67.30;11.80;95269.00;;;;5036304;28;20193;-86
2023/01/09 11:14:14;;;;;;;0.90;0.60;;;11.80;66.80;11.90;95273.00;;;;5037483;28;20287;-87
2023/01/09 11:16:53;;;;;;;0.77;0.30;;;11.80;66.90;11.90;95275.00;;;;5036612;28;20201;-88
2023/01/09 11:19:20;;;;;;;1.07;0.30;;;11.90;66.70;11.90;95264.00;;;;5036015;28;20217;-88
2023/01/09 11:21:48;;;;;;;0.37;0.30;;;11.80;66.90;11.90;95261.00;;;;5037770;28;20194;-88
2023/01/09 11:24:29;;;;;;;0.80;0.40;;;11.90;66.70;12.00;95261.00;;;;5022984;28;20249;-87
2023/01/09 11:27:23;;;;;;;0.57;0.37;;;11.90;66.30;12.00;95256.00;;;;5023184;28;20218;-86
2023/01/09 11:30:25;;;;;;;1.33;0.23;;;12.00;65.90;12.00;95261.00;;;;5083197;22;20320;-88
2023/01/09 11:32:54;;;;;;;3.73;0.50;;;12.00;66.10;12.00;95263.00;;;;5073599;28;20214;-87